sensor_id;sensor_type;location;lat;lon;timestamp;pressure;altitude;pressure_sealevel;temperature;humidity
84496;BME280;74855;51.206;17.408;2024-02-23T00:03:58;97537.16;;;8.72;79.90
84496;BME280;74855;51.206;17.408;2024-02-23T00:08:55;97533.22;;;8.74;79.62
84496;BME280;74855;51.206;17.408;2024-02-23T00:13:51;97532.97;;;8.76;80.08
84496;BME280;74855;51.206;17.408;2024-02-23T00:18:48;97536.91;;;8.78;79.98
84496;BME280;74855;51.206;17.408;2024-02-23T00:23:45;97530.34;;;8.81;80.45
84496;BME280;74855;51.206;17.408;2024-02-23T00:28:42;97525.88;;;8.81;80.16
84496;BME280;74855;51.206;17.408;2024-02-23T00:33:37;97535.34;;;8.82;80.34
84496;BME280;74855;51.206;17.408;2024-02-23T00:38:33;97549.00;;;8.84;81.26
84496;BME280;74855;51.206;17.408;2024-02-23T00:43:38;97555.81;;;8.91;80.88
84496;BME280;74855;51.206;17.408;2024-02-23T00:48:35;97555.56;;;8.97;81.14
84496;BME280;74855;51.206;17.408;2024-02-23T00:53:31;97562.41;;;9.08;81.43
84496;BME280;74855;51.206;17.408;2024-02-23T00:58:27;97566.88;;;9.18;80.91
84496;BME280;74855;51.206;17.408;2024-02-23T01:03:23;97565.00;;;9.23;80.70
84496;BME280;74855;51.206;17.408;2024-02-23T01:08:20;97554.22;;;9.30;81.02
84496;BME280;74855;51.206;17.408;2024-02-23T01:13:16;97544.00;;;9.34;80.81
84496;BME280;74855;51.206;17.408;2024-02-23T01:18:12;97553.44;;;9.35;80.89
84496;BME280;74855;51.206;17.408;2024-02-23T01:23:08;97542.41;;;9.38;80.40
84496;BME280;74855;51.206;17.408;2024-02-23T01:28:06;97533.19;;;9.35;80.48
84496;BME280;74855;51.206;17.408;2024-02-23T01:33:02;97542.66;;;9.46;80.03
84496;BME280;74855;51.206;17.408;2024-02-23T01:37:57;97551.31;;;9.52;79.86
84496;BME280;74855;51.206;17.408;2024-02-23T01:43:01;97561.28;;;9.55;79.75
84496;BME280;74855;51.206;17.408;2024-02-23T01:47:58;97551.81;;;9.59;78.71
84496;BME280;74855;51.206;17.408;2024-02-23T01:52:55;97536.84;;;9.59;79.17
84496;BME280;74855;51.206;17.408;2024-02-23T01:57:51;97535.00;;;9.60;78.79
84496;BME280;74855;51.206;17.408;2024-02-23T02:02:48;97525.81;;;9.52;78.30
84496;BME280;74855;51.206;17.408;2024-02-23T02:07:46;97531.56;;;9.64;77.85
84496;BME280;74855;51.206;17.408;2024-02-23T02:12:43;97529.94;;;9.69;77.39
84496;BME280;74855;51.206;17.408;2024-02-23T02:17:38;97521.81;;;9.70;77.62
84496;BME280;74855;51.206;17.408;2024-02-23T02:22:34;97509.44;;;9.60;78.87
84496;BME280;74855;51.206;17.408;2024-02-23T02:27:32;97517.94;;;9.47;78.19
84496;BME280;74855;51.206;17.408;2024-02-23T02:32:28;97524.25;;;9.36;78.71
84496;BME280;74855;51.206;17.408;2024-02-23T02:37:23;97558.19;;;9.28;78.65
84496;BME280;74855;51.206;17.408;2024-02-23T02:42:19;97554.50;;;9.18;78.84
84496;BME280;74855;51.206;17.408;2024-02-23T02:47:17;97560.03;;;9.12;78.44
84496;BME280;74855;51.206;17.408;2024-02-23T02:52:13;97566.88;;;9.08;78.90
84496;BME280;74855;51.206;17.408;2024-02-23T02:57:09;97568.19;;;9.05;78.25
84496;BME280;74855;51.206;17.408;2024-02-23T03:02:05;97566.59;;;9.04;78.77
84496;BME280;74855;51.206;17.408;2024-02-23T03:07:02;97565.31;;;9.02;78.17
84496;BME280;74855;51.206;17.408;2024-02-23T03:11:57;97565.31;;;9.02;78.22
84496;BME280;74855;51.206;17.408;2024-02-23T03:16:53;97575.03;;;9.01;78.63
84496;BME280;74855;51.206;17.408;2024-02-23T03:21:49;97578.44;;;9.02;78.05
84496;BME280;74855;51.206;17.408;2024-02-23T03:26:47;97590.78;;;9.01;78.04
84496;BME280;74855;51.206;17.408;2024-02-23T03:31:45;97589.75;;;9.02;77.77
84496;BME280;74855;51.206;17.408;2024-02-23T03:36:41;97604.19;;;9.05;77.67
84496;BME280;74855;51.206;17.408;2024-02-23T03:41:38;97618.91;;;9.06;77.73
84496;BME280;74855;51.206;17.408;2024-02-23T03:46:35;97641.25;;;9.08;77.44
84496;BME280;74855;51.206;17.408;2024-02-23T03:51:30;97648.34;;;9.13;77.48
84496;BME280;74855;51.206;17.408;2024-02-23T03:56:26;97660.72;;;9.17;77.67
84496;BME280;74855;51.206;17.408;2024-02-23T04:01:22;97664.66;;;9.20;77.29
84496;BME280;74855;51.206;17.408;2024-02-23T04:06:19;97667.78;;;9.22;76.84
84496;BME280;74855;51.206;17.408;2024-02-23T04:11:15;97675.97;;;9.20;77.45
84496;BME280;74855;51.206;17.408;2024-02-23T04:16:10;97679.34;;;9.16;77.04
84496;BME280;74855;51.206;17.408;2024-02-23T04:21:06;97689.06;;;9.10;77.29
84496;BME280;74855;51.206;17.408;2024-02-23T04:26:04;97691.44;;;9.07;77.50
84496;BME280;74855;51.206;17.408;2024-02-23T04:31:00;97710.09;;;9.05;76.97
84496;BME280;74855;51.206;17.408;2024-02-23T04:35:57;97708.78;;;9.03;77.39
84496;BME280;74855;51.206;17.408;2024-02-23T04:40:53;97711.69;;;9.01;77.10
84496;BME280;74855;51.206;17.408;2024-02-23T04:45:50;97704.84;;;8.95;77.02
84496;BME280;74855;51.206;17.408;2024-02-23T04:50:48;97707.44;;;8.90;77.18
84496;BME280;74855;51.206;17.408;2024-02-23T04:55:44;97715.53;;;8.83;77.68
84496;BME280;74855;51.206;17.408;2024-02-23T05:00:39;97720.00;;;8.78;77.45
84496;BME280;74855;51.206;17.408;2024-02-23T05:05:36;97712.09;;;8.73;77.44
84496;BME280;74855;51.206;17.408;2024-02-23T05:10:33;97719.72;;;8.69;77.75
84496;BME280;74855;51.206;17.408;2024-02-23T05:15:29;97735.72;;;8.68;77.57
84496;BME280;74855;51.206;17.408;2024-02-23T05:20:25;97740.19;;;8.62;77.47
84496;BME280;74855;51.206;17.408;2024-02-23T05:25:25;97758.00;;;8.60;78.01
84496;BME280;74855;51.206;17.408;2024-02-23T05:30:21;97771.44;;;8.64;77.87
84496;BME280;74855;51.206;17.408;2024-02-23T05:35:17;97772.50;;;8.63;78.22
84496;BME280;74855;51.206;17.408;2024-02-23T05:40:12;97785.09;;;8.66;78.47
84496;BME280;74855;51.206;17.408;2024-02-23T05:45:10;97778.56;;;8.68;78.60
84496;BME280;74855;51.206;17.408;2024-02-23T05:50:07;97797.50;;;8.75;78.65
84496;BME280;74855;51.206;17.408;2024-02-23T05:55:04;97806.75;;;8.83;78.08
84496;BME280;74855;51.206;17.408;2024-02-23T05:59:59;97814.38;;;8.90;78.13
84496;BME280;74855;51.206;17.408;2024-02-23T06:04:56;97819.44;;;9.01;78.11
84496;BME280;74855;51.206;17.408;2024-02-23T06:09:52;97829.97;;;9.11;77.63
84496;BME280;74855;51.206;17.408;2024-02-23T06:14:48;97831.88;;;9.21;77.69
84496;BME280;74855;51.206;17.408;2024-02-23T06:19:44;97842.66;;;9.30;77.13
84496;BME280;74855;51.206;17.408;2024-02-23T06:24:41;97856.34;;;9.37;76.97
84496;BME280;74855;51.206;17.408;2024-02-23T06:29:39;97874.28;;;9.45;76.37
84496;BME280;74855;51.206;17.408;2024-02-23T06:34:34;97872.44;;;9.50;76.32
84496;BME280;74855;51.206;17.408;2024-02-23T06:39:30;97879.56;;;9.55;76.51
84496;BME280;74855;51.206;17.408;2024-02-23T06:44:27;97888.53;;;9.59;75.85
84496;BME280;74855;51.206;17.408;2024-02-23T06:49:23;97898.00;;;9.65;76.30
84496;BME280;74855;51.206;17.408;2024-02-23T06:54:22;97901.94;;;9.68;75.47
84496;BME280;74855;51.206;17.408;2024-02-23T06:59:18;97917.47;;;9.69;75.13
84496;BME280;74855;51.206;17.408;2024-02-23T07:04:15;97912.75;;;9.71;75.21
84496;BME280;74855;51.206;17.408;2024-02-23T07:09:11;97920.13;;;9.74;75.19
84496;BME280;74855;51.206;17.408;2024-02-23T07:14:06;97926.47;;;9.78;74.54
84496;BME280;74855;51.206;17.408;2024-02-23T07:19:02;97925.69;;;9.83;74.70
84496;BME280;74855;51.206;17.408;2024-02-23T07:24:00;97939.94;;;9.92;74.31
84496;BME280;74855;51.206;17.408;2024-02-23T07:28:55;97944.16;;;10.03;73.31
84496;BME280;74855;51.206;17.408;2024-02-23T07:33:52;97943.66;;;10.11;73.13
84496;BME280;74855;51.206;17.408;2024-02-23T07:38:48;97950.00;;;10.20;73.02
84496;BME280;74855;51.206;17.408;2024-02-23T07:43:45;97959.50;;;10.26;71.92
84496;BME280;74855;51.206;17.408;2024-02-23T07:48:41;97969.25;;;10.31;72.31
84496;BME280;74855;51.206;17.408;2024-02-23T07:53:36;97970.56;;;10.38;71.58
84496;BME280;74855;51.206;17.408;2024-02-23T07:58:32;97965.84;;;10.45;71.76
84496;BME280;74855;51.206;17.408;2024-02-23T08:03:29;97974.53;;;10.51;71.62
84496;BME280;74855;51.206;17.408;2024-02-23T08:08:25;97986.41;;;10.64;71.11
84496;BME280;74855;51.206;17.408;2024-02-23T08:13:21;98000.13;;;10.81;70.52
84496;BME280;74855;51.206;17.408;2024-02-23T08:18:16;98011.44;;;11.02;70.14
84496;BME280;74855;51.206;17.408;2024-02-23T08:23:14;98021.19;;;11.16;69.59
84496;BME280;74855;51.206;17.408;2024-02-23T08:28:11;98032.25;;;11.34;68.74
84496;BME280;74855;51.206;17.408;2024-02-23T08:33:06;98030.88;;;11.61;68.46
84496;BME280;74855;51.206;17.408;2024-02-23T08:38:02;98030.72;;;12.12;67.01
84496;BME280;74855;51.206;17.408;2024-02-23T08:42:59;98034.06;;;12.33;66.05
84496;BME280;74855;51.206;17.408;2024-02-23T08:47:55;98044.56;;;12.48;63.89
84496;BME280;74855;51.206;17.408;2024-02-23T08:52:51;98053.53;;;12.47;63.88
84496;BME280;74855;51.206;17.408;2024-02-23T08:57:46;98068.03;;;12.50;64.69
84496;BME280;74855;51.206;17.408;2024-02-23T09:02:44;98068.34;;;12.43;64.35
84496;BME280;74855;51.206;17.408;2024-02-23T09:07:39;98091.94;;;12.34;64.08
84496;BME280;74855;51.206;17.408;2024-02-23T09:12:35;98097.47;;;12.33;64.05
84496;BME280;74855;51.206;17.408;2024-02-23T09:17:31;98096.13;;;12.35;64.18
84496;BME280;74855;51.206;17.408;2024-02-23T09:22:28;98113.59;;;12.31;64.87
84496;BME280;74855;51.206;17.408;2024-02-23T09:27:24;98117.25;;;12.35;64.30
84496;BME280;74855;51.206;17.408;2024-02-23T09:32:19;98124.59;;;12.54;60.90
84496;BME280;74855;51.206;17.408;2024-02-23T09:37:15;98135.84;;;12.74;57.67
84496;BME280;74855;51.206;17.408;2024-02-23T09:42:12;98153.50;;;12.89;53.11
84496;BME280;74855;51.206;17.408;2024-02-23T09:47:08;98155.75;;;13.11;53.17
84496;BME280;74855;51.206;17.408;2024-02-23T09:52:07;98155.59;;;13.36;50.18
84496;BME280;74855;51.206;17.408;2024-02-23T09:57:06;98166.81;;;13.57;50.29
84496;BME280;74855;51.206;17.408;2024-02-23T10:02:07;98185.00;;;13.63;48.52
84496;BME280;74855;51.206;17.408;2024-02-23T10:07:03;98183.47;;;13.62;47.75
84496;BME280;74855;51.206;17.408;2024-02-23T10:11:59;98193.75;;;13.64;46.53
84496;BME280;74855;51.206;17.408;2024-02-23T10:16:54;98195.66;;;13.58;46.90
84496;BME280;74855;51.206;17.408;2024-02-23T10:21:52;98205.34;;;13.73;46.02
84496;BME280;74855;51.206;17.408;2024-02-23T10:26:48;98215.56;;;13.85;46.96
84496;BME280;74855;51.206;17.408;2024-02-23T10:31:46;98223.66;;;13.98;47.22
84496;BME280;74855;51.206;17.408;2024-02-23T10:36:43;98233.94;;;14.05;46.79
84496;BME280;74855;51.206;17.408;2024-02-23T10:41:44;98240.09;;;14.00;46.95
84496;BME280;74855;51.206;17.408;2024-02-23T10:46:42;98231.41;;;13.95;46.37
84496;BME280;74855;51.206;17.408;2024-02-23T10:51:39;98239.66;;;13.88;46.40
84496;BME280;74855;51.206;17.408;2024-02-23T10:56:35;98246.59;;;13.79;44.83
84496;BME280;74855;51.206;17.408;2024-02-23T11:01:33;98249.31;;;13.74;45.09
84496;BME280;74855;51.206;17.408;2024-02-23T11:06:30;98248.16;;;13.85;45.86
84496;BME280;74855;51.206;17.408;2024-02-23T11:11:31;98245.84;;;14.08;44.43
84496;BME280;74855;51.206;17.408;2024-02-23T11:16:27;98243.09;;;14.18;44.99
84496;BME280;74855;51.206;17.408;2024-02-23T11:21:33;98240.66;;;14.21;44.69
84496;BME280;74855;51.206;17.408;2024-02-23T11:26:29;98235.81;;;14.33;43.79
84496;BME280;74855;51.206;17.408;2024-02-23T11:31:29;98236.81;;;14.85;42.47
84496;BME280;74855;51.206;17.408;2024-02-23T11:36:30;98243.81;;;15.18;42.04
84496;BME280;74855;51.206;17.408;2024-02-23T11:41:28;98233.28;;;15.70;41.42
84496;BME280;74855;51.206;17.408;2024-02-23T11:46:24;98220.09;;;16.70;40.72
84496;BME280;74855;51.206;17.408;2024-02-23T11:51:22;98231.31;;;18.51;38.92
84496;BME280;74855;51.206;17.408;2024-02-23T11:56:19;98234.84;;;19.94;36.93
84496;BME280;74855;51.206;17.408;2024-02-23T12:01:15;98229.09;;;20.76;34.43
84496;BME280;74855;51.206;17.408;2024-02-23T12:06:11;98230.28;;;19.94;34.27
84496;BME280;74855;51.206;17.408;2024-02-23T12:11:09;98237.16;;;18.92;35.28
84496;BME280;74855;51.206;17.408;2024-02-23T12:16:07;98248.97;;;17.76;35.69
84496;BME280;74855;51.206;17.408;2024-02-23T12:21:05;98247.59;;;16.93;36.66
84496;BME280;74855;51.206;17.408;2024-02-23T12:26:00;98273.56;;;16.09;38.06
84496;BME280;74855;51.206;17.408;2024-02-23T12:31:00;98265.50;;;15.25;37.62
84496;BME280;74855;51.206;17.408;2024-02-23T12:35:58;98287.16;;;14.66;38.45
84496;BME280;74855;51.206;17.408;2024-02-23T12:40:54;98292.88;;;14.26;39.86
84496;BME280;74855;51.206;17.408;2024-02-23T12:45:51;98300.97;;;14.05;40.34
84496;BME280;74855;51.206;17.408;2024-02-23T12:50:52;98301.13;;;13.85;40.61
84496;BME280;74855;51.206;17.408;2024-02-23T12:55:49;98308.41;;;13.64;41.63
84496;BME280;74855;51.206;17.408;2024-02-23T13:00:45;98316.19;;;13.46;42.52
84496;BME280;74855;51.206;17.408;2024-02-23T13:05:40;98322.38;;;13.26;41.82
84496;BME280;74855;51.206;17.408;2024-02-23T13:10:36;98321.38;;;13.17;42.39
84496;BME280;74855;51.206;17.408;2024-02-23T13:15:33;98332.78;;;13.02;44.37
84496;BME280;74855;51.206;17.408;2024-02-23T13:20:29;98337.84;;;12.89;44.65
84496;BME280;74855;51.206;17.408;2024-02-23T13:25:25;98335.75;;;12.75;46.93
84496;BME280;74855;51.206;17.408;2024-02-23T13:30:21;98337.66;;;12.60;49.34
84496;BME280;74855;51.206;17.408;2024-02-23T13:35:18;98345.06;;;12.42;50.10
84496;BME280;74855;51.206;17.408;2024-02-23T13:40:14;98342.16;;;12.14;51.34
84496;BME280;74855;51.206;17.408;2024-02-23T13:45:10;98360.13;;;11.96;52.41
84496;BME280;74855;51.206;17.408;2024-02-23T13:50:06;98360.56;;;11.68;52.99
84496;BME280;74855;51.206;17.408;2024-02-23T13:55:04;98363.38;;;11.46;54.53
84496;BME280;74855;51.206;17.408;2024-02-23T14:00:00;98363.03;;;11.17;57.55
84496;BME280;74855;51.206;17.408;2024-02-23T14:05:00;98365.75;;;10.85;58.99
84496;BME280;74855;51.206;17.408;2024-02-23T14:09:56;98367.19;;;10.61;59.67
84496;BME280;74855;51.206;17.408;2024-02-23T14:14:53;98357.88;;;10.49;60.75
84496;BME280;74855;51.206;17.408;2024-02-23T14:19:49;98362.22;;;10.33;61.80
84496;BME280;74855;51.206;17.408;2024-02-23T14:24:45;98365.38;;;10.30;61.82
84496;BME280;74855;51.206;17.408;2024-02-23T14:29:41;98364.84;;;10.28;61.78
84496;BME280;74855;51.206;17.408;2024-02-23T14:34:38;98360.94;;;10.35;61.56
84496;BME280;74855;51.206;17.408;2024-02-23T14:39:34;98369.97;;;10.44;62.42
84496;BME280;74855;51.206;17.408;2024-02-23T14:44:29;98351.78;;;10.43;63.09
84496;BME280;74855;51.206;17.408;2024-02-23T14:49:25;98343.53;;;10.29;63.69
84496;BME280;74855;51.206;17.408;2024-02-23T14:54:22;98347.38;;;10.17;63.65
84496;BME280;74855;51.206;17.408;2024-02-23T14:59:18;98343.00;;;10.05;64.70
84496;BME280;74855;51.206;17.408;2024-02-23T15:04:14;98351.31;;;9.92;63.61
84496;BME280;74855;51.206;17.408;2024-02-23T15:09:10;98366.19;;;9.77;63.34
84496;BME280;74855;51.206;17.408;2024-02-23T15:14:07;98381.09;;;9.66;63.93
84496;BME280;74855;51.206;17.408;2024-02-23T15:19:03;98387.25;;;9.55;63.69
84496;BME280;74855;51.206;17.408;2024-02-23T15:23:58;98399.91;;;9.36;64.29
84496;BME280;74855;51.206;17.408;2024-02-23T15:28:54;98398.44;;;9.23;64.60
84496;BME280;74855;51.206;17.408;2024-02-23T15:33:51;98411.66;;;9.07;64.80
84496;BME280;74855;51.206;17.408;2024-02-23T15:38:47;98410.47;;;8.98;65.02
84496;BME280;74855;51.206;17.408;2024-02-23T15:43:43;98413.25;;;8.91;65.65
84496;BME280;74855;51.206;17.408;2024-02-23T15:48:40;98412.16;;;8.87;66.70
84496;BME280;74855;51.206;17.408;2024-02-23T15:53:37;98406.50;;;8.78;67.16
84496;BME280;74855;51.206;17.408;2024-02-23T15:58:33;98411.69;;;8.73;67.56
84496;BME280;74855;51.206;17.408;2024-02-23T16:03:29;98416.38;;;8.71;67.45
84496;BME280;74855;51.206;17.408;2024-02-23T16:08:40;98411.78;;;8.62;67.69
84496;BME280;74855;51.206;17.408;2024-02-23T16:13:36;98408.75;;;8.53;68.45
84496;BME280;74855;51.206;17.408;2024-02-23T16:18:32;98407.88;;;8.48;68.44
84496;BME280;74855;51.206;17.408;2024-02-23T16:23:28;98407.00;;;8.42;69.11
84496;BME280;74855;51.206;17.408;2024-02-23T16:28:25;98421.88;;;8.36;69.31
84496;BME280;74855;51.206;17.408;2024-02-23T16:33:21;98421.81;;;8.31;68.99
84496;BME280;74855;51.206;17.408;2024-02-23T16:38:17;98421.66;;;8.26;69.71
84496;BME280;74855;51.206;17.408;2024-02-23T16:43:13;98422.72;;;8.25;69.79
84496;BME280;74855;51.206;17.408;2024-02-23T16:48:10;98415.63;;;8.26;70.48
84496;BME280;74855;51.206;17.408;2024-02-23T16:53:06;98421.66;;;8.26;70.50
84496;BME280;74855;51.206;17.408;2024-02-23T16:58:02;98419.84;;;8.27;70.60
84496;BME280;74855;51.206;17.408;2024-02-23T17:02:58;98427.19;;;8.25;70.72
84496;BME280;74855;51.206;17.408;2024-02-23T17:07:55;98428.22;;;8.24;70.95
84496;BME280;74855;51.206;17.408;2024-02-23T17:12:51;98436.31;;;8.22;71.13
84496;BME280;74855;51.206;17.408;2024-02-23T17:17:46;98432.81;;;8.17;71.10
84496;BME280;74855;51.206;17.408;2024-02-23T17:22:43;98432.38;;;8.08;71.76
84496;BME280;74855;51.206;17.408;2024-02-23T17:27:41;98432.13;;;7.93;72.12
84496;BME280;74855;51.206;17.408;2024-02-23T17:32:37;98445.69;;;7.90;72.36
84496;BME280;74855;51.206;17.408;2024-02-23T17:37:33;98433.28;;;7.85;72.57
84496;BME280;74855;51.206;17.408;2024-02-23T17:42:30;98437.50;;;7.86;72.76
84496;BME280;74855;51.206;17.408;2024-02-23T17:47:27;98451.88;;;7.84;72.92
84496;BME280;74855;51.206;17.408;2024-02-23T17:52:23;98447.66;;;7.83;73.30
84496;BME280;74855;51.206;17.408;2024-02-23T17:57:18;98434.00;;;7.81;73.27
84496;BME280;74855;51.206;17.408;2024-02-23T18:02:14;98431.59;;;7.79;73.85
84496;BME280;74855;51.206;17.408;2024-02-23T18:07:11;98440.00;;;7.81;73.88
84496;BME280;74855;51.206;17.408;2024-02-23T18:12:10;98439.00;;;7.82;74.35
84496;BME280;74855;51.206;17.408;2024-02-23T18:17:06;98435.56;;;7.82;73.86
84496;BME280;74855;51.206;17.408;2024-02-23T18:22:02;98436.63;;;7.81;74.46
84496;BME280;74855;51.206;17.408;2024-02-23T18:26:59;98429.19;;;7.78;74.09
84496;BME280;74855;51.206;17.408;2024-02-23T18:31:58;98426.16;;;7.69;74.39
84496;BME280;74855;51.206;17.408;2024-02-23T18:36:54;98420.81;;;7.64;74.65
84496;BME280;74855;51.206;17.408;2024-02-23T18:41:50;98417.38;;;7.63;74.55
84496;BME280;74855;51.206;17.408;2024-02-23T18:46:47;98412.38;;;7.62;74.62
84496;BME280;74855;51.206;17.408;2024-02-23T18:51:43;98401.09;;;7.61;74.87
84496;BME280;74855;51.206;17.408;2024-02-23T18:56:38;98408.63;;;7.58;74.85
84496;BME280;74855;51.206;17.408;2024-02-23T19:01:34;98420.63;;;7.54;75.45
84496;BME280;74855;51.206;17.408;2024-02-23T19:06:31;98414.47;;;7.48;75.46
84496;BME280;74855;51.206;17.408;2024-02-23T19:11:30;98412.44;;;7.39;75.65
84496;BME280;74855;51.206;17.408;2024-02-23T19:16:26;98411.41;;;7.40;75.75
84496;BME280;74855;51.206;17.408;2024-02-23T19:21:22;98419.84;;;7.42;75.89
84496;BME280;74855;51.206;17.408;2024-02-23T19:26:19;98410.63;;;7.39;76.16
84496;BME280;74855;51.206;17.408;2024-02-23T19:31:17;98409.59;;;7.40;76.09
84496;BME280;74855;51.206;17.408;2024-02-23T19:36:13;98400.44;;;7.43;76.20
84496;BME280;74855;51.206;17.408;2024-02-23T19:41:09;98398.31;;;7.40;76.43
84496;BME280;74855;51.206;17.408;2024-02-23T19:46:06;98394.00;;;7.34;76.37
84496;BME280;74855;51.206;17.408;2024-02-23T19:51:02;98387.28;;;7.26;76.42
84496;BME280;74855;51.206;17.408;2024-02-23T19:55:58;98406.44;;;7.27;76.54
84496;BME280;74855;51.206;17.408;2024-02-23T20:00:54;98388.78;;;7.22;76.99
84496;BME280;74855;51.206;17.408;2024-02-23T20:05:51;98378.31;;;7.22;76.84
84496;BME280;74855;51.206;17.408;2024-02-23T20:10:47;98374.78;;;7.16;77.08
84496;BME280;74855;51.206;17.408;2024-02-23T20:15:43;98366.56;;;7.13;77.44
84496;BME280;74855;51.206;17.408;2024-02-23T20:20:39;98355.50;;;7.11;77.25
84496;BME280;74855;51.206;17.408;2024-02-23T20:25:40;98348.72;;;7.10;77.20
84496;BME280;74855;51.206;17.408;2024-02-23T20:30:36;98349.16;;;7.07;77.15
84496;BME280;74855;51.206;17.408;2024-02-23T20:35:32;98344.25;;;6.99;77.89
84496;BME280;74855;51.206;17.408;2024-02-23T20:40:29;98344.16;;;6.94;77.77
84496;BME280;74855;51.206;17.408;2024-02-23T20:45:27;98327.56;;;6.88;77.98
84496;BME280;74855;51.206;17.408;2024-02-23T20:50:23;98330.78;;;6.78;78.20
84496;BME280;74855;51.206;17.408;2024-02-23T20:55:19;98320.84;;;6.69;78.26
84496;BME280;74855;51.206;17.408;2024-02-23T21:00:15;98315.84;;;6.67;78.58
84496;BME280;74855;51.206;17.408;2024-02-23T21:05:12;98311.09;;;6.64;78.95
84496;BME280;74855;51.206;17.408;2024-02-23T21:10:09;98317.34;;;6.63;79.22
84496;BME280;74855;51.206;17.408;2024-02-23T21:15:06;98301.63;;;6.63;79.19
84496;BME280;74855;51.206;17.408;2024-02-23T21:20:01;98301.16;;;6.66;79.05
84496;BME280;74855;51.206;17.408;2024-02-23T21:24:59;98305.03;;;6.64;79.33
84496;BME280;74855;51.206;17.408;2024-02-23T21:29:55;98298.78;;;6.65;79.33
84496;BME280;74855;51.206;17.408;2024-02-23T21:34:50;98298.88;;;6.70;79.55
84496;BME280;74855;51.206;17.408;2024-02-23T21:39:46;98291.03;;;6.70;79.55
84496;BME280;74855;51.206;17.408;2024-02-23T21:44:43;98284.78;;;6.71;79.64
84496;BME280;74855;51.206;17.408;2024-02-23T21:49:40;98282.47;;;6.74;79.76
84496;BME280;74855;51.206;17.408;2024-02-23T21:54:38;98274.19;;;6.77;79.94
84496;BME280;74855;51.206;17.408;2024-02-23T21:59:34;98271.56;;;6.77;79.99
84496;BME280;74855;51.206;17.408;2024-02-23T22:04:31;98260.06;;;6.78;80.01
84496;BME280;74855;51.206;17.408;2024-02-23T22:09:27;98252.88;;;6.74;79.78
84496;BME280;74855;51.206;17.408;2024-02-23T22:14:23;98253.66;;;6.74;80.27
84496;BME280;74855;51.206;17.408;2024-02-23T22:19:18;98234.91;;;6.77;80.39
84496;BME280;74855;51.206;17.408;2024-02-23T22:24:15;98219.19;;;6.77;80.28
84496;BME280;74855;51.206;17.408;2024-02-23T22:29:11;98214.59;;;6.84;80.65
84496;BME280;74855;51.206;17.408;2024-02-23T22:34:07;98216.50;;;6.89;80.56
84496;BME280;74855;51.206;17.408;2024-02-23T22:39:03;98213.69;;;6.91;80.76
84496;BME280;74855;51.206;17.408;2024-02-23T22:44:00;98206.13;;;6.94;80.80
84496;BME280;74855;51.206;17.408;2024-02-23T22:48:56;98205.19;;;7.00;80.78
84496;BME280;74855;51.206;17.408;2024-02-23T22:53:54;98193.13;;;6.99;80.80
84496;BME280;74855;51.206;17.408;2024-02-23T22:58:49;98186.75;;;6.95;80.89
84496;BME280;74855;51.206;17.408;2024-02-23T23:03:52;98189.97;;;6.97;81.11
84496;BME280;74855;51.206;17.408;2024-02-23T23:08:48;98192.56;;;6.97;81.12
84496;BME280;74855;51.206;17.408;2024-02-23T23:13:44;98182.41;;;7.01;81.27
84496;BME280;74855;51.206;17.408;2024-02-23T23:18:40;98178.53;;;7.03;81.27
84496;BME280;74855;51.206;17.408;2024-02-23T23:23:37;98179.72;;;7.12;81.31
84496;BME280;74855;51.206;17.408;2024-02-23T23:28:32;98172.75;;;7.18;81.40
84496;BME280;74855;51.206;17.408;2024-02-23T23:33:28;98158.25;;;7.27;81.30
84496;BME280;74855;51.206;17.408;2024-02-23T23:38:24;98153.47;;;7.41;81.43
84496;BME280;74855;51.206;17.408;2024-02-23T23:43:21;98135.50;;;7.49;81.33
84496;BME280;74855;51.206;17.408;2024-02-23T23:48:17;98128.59;;;7.60;81.06
84496;BME280;74855;51.206;17.408;2024-02-23T23:53:13;98127.03;;;7.59;81.16
84496;BME280;74855;51.206;17.408;2024-02-23T23:58:09;98112.53;;;7.56;81.28
